createdAt,value
2023-02-17T00:00:31.113Z,45510.16
2023-02-17T00:02:58.983Z,45502.16
2023-02-17T00:05:26.909Z,45508.16
2023-02-17T00:07:54.144Z,45502.16
2023-02-17T00:10:20.731Z,45510.16
2023-02-17T00:12:47.221Z,45504.16
2023-02-17T00:15:13.588Z,45502.16
2023-02-17T00:17:40.074Z,45498.16
2023-02-17T00:20:07.162Z,45494.16
2023-02-17T00:22:33.586Z,45498.16
2023-02-17T00:25:00.101Z,45502.16
2023-02-17T00:27:26.505Z,45486.16
2023-02-17T00:29:53.068Z,45494.16
2023-02-17T00:32:19.548Z,45512.16
2023-02-17T00:34:46.167Z,45518.13
2023-02-17T00:37:13.410Z,45494.16
2023-02-17T00:39:39.863Z,45510.16
2023-02-17T00:42:06.476Z,45526.13
2023-02-17T00:44:32.966Z,45496.16
2023-02-17T00:46:59.387Z,45506.16
2023-02-17T00:49:26.808Z,45514.13
2023-02-17T00:51:53.689Z,45494.16
2023-02-17T00:54:20.405Z,45518.13
2023-02-17T00:56:46.866Z,45498.16
2023-02-17T00:59:13.595Z,45506.16
2023-02-17T01:01:40.081Z,45486.16
2023-02-17T01:04:06.881Z,45502.16
2023-02-17T01:06:37.229Z,45514.13
2023-02-17T01:09:06.391Z,45522.13
2023-02-17T01:11:34.584Z,45510.16
2023-02-17T01:14:02.788Z,45508.16
2023-02-17T01:16:38.474Z,45506.16
2023-02-17T01:19:07.767Z,45498.16
2023-02-17T01:21:34.323Z,45496.16
2023-02-17T01:24:04.496Z,45534.13
2023-02-17T01:26:33.057Z,45530.13
2023-02-17T01:29:01.142Z,45504.16
2023-02-17T01:31:28.299Z,45510.16
2023-02-17T01:33:58.068Z,45514.13
2023-02-17T01:36:24.932Z,45510.16
2023-02-17T01:38:51.469Z,45520.13
2023-02-17T01:41:20.698Z,45522.13
2023-02-17T01:44:25.972Z,45500.16
2023-02-17T01:46:54.354Z,45516.13
2023-02-17T01:49:26.486Z,45512.16
2023-02-17T01:52:07.529Z,45514.13
2023-02-17T01:54:45.472Z,45514.13
2023-02-17T01:57:14.849Z,45510.16
2023-02-17T01:59:42.038Z,45498.16
2023-02-17T02:02:09.312Z,45526.13
2023-02-17T02:04:39.247Z,45502.16
2023-02-17T02:07:11.621Z,45522.13
2023-02-17T02:09:42.921Z,45530.13
2023-02-17T02:12:27.660Z,45514.13
2023-02-17T02:14:58.417Z,45510.16
2023-02-17T02:17:30.882Z,45514.13
2023-02-17T02:21:06.093Z,45500.16
2023-02-17T02:23:58.621Z,45526.13
2023-02-17T02:26:53.351Z,45518.13
2023-02-17T02:29:50.280Z,45522.13
2023-02-17T02:32:54.251Z,45520.13
2023-02-17T02:35:26.706Z,45526.13
2023-02-17T02:38:12.058Z,45514.13
2023-02-17T02:40:46.414Z,45504.16
2023-02-17T02:43:14.759Z,45498.16
2023-02-17T02:45:41.936Z,45514.13
2023-02-17T02:48:08.411Z,45498.16
2023-02-17T02:50:54.863Z,45518.13
2023-02-17T02:53:49.964Z,45524.13
2023-02-17T02:56:38.403Z,45506.16
2023-02-17T02:59:19.891Z,45506.16
2023-02-17T03:02:16.633Z,45500.16
2023-02-17T03:04:56.738Z,45514.13
2023-02-17T03:07:54.215Z,45502.16
2023-02-17T03:10:21.380Z,45518.13
2023-02-17T03:12:47.877Z,45514.13
2023-02-17T03:15:23.545Z,45498.16
2023-02-17T03:17:49.952Z,45526.13
2023-02-17T03:20:16.647Z,45526.13
2023-02-17T03:22:48.030Z,45502.16
2023-02-17T03:25:15.965Z,45496.16
2023-02-17T03:27:43.305Z,45506.16
2023-02-17T03:30:10.857Z,45512.16
2023-02-17T03:32:37.344Z,45502.16
2023-02-17T03:35:04.789Z,45502.16
2023-02-17T03:37:31.269Z,45524.13
2023-02-17T03:39:57.672Z,45504.16
2023-02-17T03:42:24.255Z,45516.13
2023-02-17T03:44:51.806Z,45512.16
2023-02-17T03:47:18.318Z,45506.16
2023-02-17T03:49:44.865Z,45490.16
2023-02-17T03:52:11.283Z,45514.13
2023-02-17T03:54:37.776Z,45514.13
2023-02-17T03:57:04.223Z,45478.16
2023-02-17T03:59:31.078Z,45494.16
2023-02-17T04:01:57.511Z,45514.13
2023-02-17T04:04:24.106Z,45512.16
2023-02-17T04:06:50.651Z,45494.16
2023-02-17T04:09:17.124Z,45482.16
2023-02-17T04:11:44.380Z,45494.16
2023-02-17T04:14:10.884Z,45502.16
2023-02-17T04:16:39.100Z,45510.16
2023-02-17T04:19:06.995Z,45490.16
2023-02-17T04:21:33.798Z,45498.16
2023-02-17T04:24:01.890Z,45500.16
2023-02-17T04:26:29.096Z,45504.16
2023-02-17T04:28:56.632Z,45518.13
2023-02-17T04:31:23.867Z,45506.16
2023-02-17T04:33:50.275Z,45506.16
2023-02-17T04:36:16.998Z,45496.16
2023-02-17T04:38:43.503Z,45506.16
2023-02-17T04:41:10.027Z,45514.13
2023-02-17T04:43:36.450Z,45502.16
2023-02-17T04:46:03.053Z,45502.16
2023-02-17T04:48:29.567Z,45498.16
2023-02-17T04:50:56.254Z,45498.16
2023-02-17T04:53:22.870Z,45500.16
2023-02-17T04:55:52.289Z,45484.16
2023-02-17T04:58:20.199Z,45490.16
2023-02-17T05:00:48.529Z,45492.16
2023-02-17T05:03:15.102Z,45474.16
2023-02-17T05:05:41.567Z,45494.16
2023-02-17T05:08:08.447Z,45502.16
2023-02-17T05:10:34.934Z,45518.13
2023-02-17T05:13:01.367Z,45518.13
2023-02-17T05:15:27.754Z,45486.16
2023-02-17T05:17:54.153Z,45498.16
2023-02-17T05:20:20.851Z,45510.16
2023-02-17T05:22:47.269Z,45506.16
2023-02-17T05:25:13.735Z,45490.16
2023-02-17T05:27:40.276Z,45486.16
2023-02-17T05:30:07.894Z,45534.13
2023-02-17T05:32:34.347Z,45510.16
2023-02-17T05:35:00.790Z,45504.16
2023-02-17T05:37:27.477Z,45516.13
2023-02-17T05:39:53.965Z,45510.16
2023-02-17T05:42:20.403Z,45512.16
2023-02-17T05:44:46.840Z,45506.16
2023-02-17T05:47:13.234Z,45502.16
2023-02-17T05:49:39.725Z,45510.16
2023-02-17T05:52:06.301Z,45490.16
2023-02-17T05:54:32.734Z,45506.16
2023-02-17T05:56:59.096Z,45506.16
2023-02-17T05:59:25.585Z,45514.13
2023-02-17T06:01:52.084Z,45518.13
2023-02-17T06:04:18.730Z,45508.16
2023-02-17T06:06:45.148Z,45502.16
2023-02-17T06:09:11.549Z,45504.16
2023-02-17T06:11:37.958Z,45502.16
2023-02-17T06:14:04.479Z,45510.16
2023-02-17T06:16:30.990Z,45514.13
2023-02-17T06:18:59.910Z,45518.13
2023-02-17T06:21:26.300Z,45494.16
2023-02-17T06:23:52.758Z,45498.16
2023-02-17T06:26:19.231Z,45510.16
2023-02-17T06:28:45.818Z,45496.16
2023-02-17T06:31:12.236Z,45506.16
2023-02-17T06:33:38.738Z,45514.13
2023-02-17T06:36:05.990Z,45506.16
2023-02-17T06:38:32.603Z,45518.13
2023-02-17T06:40:59.179Z,45508.16
2023-02-17T06:43:25.574Z,45502.16
2023-02-17T06:45:51.993Z,45498.16
2023-02-17T06:48:18.521Z,45504.16
2023-02-17T06:50:45.026Z,45508.16
2023-02-17T06:53:11.451Z,45514.13
2023-02-17T06:55:39.365Z,45510.16
2023-02-17T06:58:05.839Z,45494.16
2023-02-17T07:00:32.233Z,45512.16
2023-02-17T07:02:58.763Z,45514.13
2023-02-17T07:05:25.388Z,45514.13
2023-02-17T07:07:53.461Z,45502.16
2023-02-17T07:10:20.041Z,45522.13
2023-02-17T07:12:46.584Z,45510.16
2023-02-17T07:15:13.081Z,45512.16
2023-02-17T07:17:39.557Z,45514.13
2023-02-17T07:20:06.804Z,45506.16
2023-02-17T07:22:33.180Z,45520.13
2023-02-17T07:25:00.177Z,45514.13
2023-02-17T07:27:26.570Z,45512.16
2023-02-17T07:29:52.975Z,45498.16
2023-02-17T07:32:19.361Z,45508.16
2023-02-17T07:34:45.888Z,45502.16
2023-02-17T07:37:12.487Z,45498.16
2023-02-17T07:39:38.884Z,45506.16
2023-02-17T07:42:06.185Z,45506.16
2023-02-17T07:44:33.032Z,45502.16
2023-02-17T07:46:59.616Z,45506.16
2023-02-17T07:49:26.062Z,45506.16
2023-02-17T07:51:52.449Z,45502.16
2023-02-17T07:54:18.951Z,45490.16
2023-02-17T07:56:45.330Z,45498.16
2023-02-17T07:59:12.699Z,45514.13
2023-02-17T08:01:39.166Z,45492.16
2023-02-17T08:04:05.787Z,45514.13
2023-02-17T08:06:32.688Z,45510.16
2023-02-17T08:09:17.837Z,45518.13
2023-02-17T08:12:03.183Z,45510.16
2023-02-17T08:14:31.037Z,45474.16
2023-02-17T08:16:58.481Z,45504.16
2023-02-17T08:19:27.190Z,45498.16
2023-02-17T08:21:56.701Z,45508.16
2023-02-17T08:24:24.592Z,45514.13
2023-02-17T08:26:51.596Z,45504.16
2023-02-17T08:29:20.085Z,45498.16
2023-02-17T08:31:50.879Z,45492.16
2023-02-17T08:34:17.704Z,45490.16
2023-02-17T08:36:44.207Z,45506.16
2023-02-17T08:39:14.043Z,45518.13
2023-02-17T08:41:41.086Z,45502.16
2023-02-17T08:44:12.193Z,45488.16
2023-02-17T08:46:39.084Z,45494.16
2023-02-17T08:49:06.852Z,45484.16
2023-02-17T08:51:33.324Z,45494.16
2023-02-17T08:54:00.801Z,45486.16
2023-02-17T08:56:27.571Z,45502.16
2023-02-17T08:58:54.930Z,45494.16
2023-02-17T09:01:22.461Z,45490.16
2023-02-17T09:03:50.767Z,45490.16
2023-02-17T09:06:17.989Z,45474.16
2023-02-17T09:08:44.955Z,45492.16
2023-02-17T09:11:15.225Z,45500.16
2023-02-17T09:13:41.783Z,45458.19
2023-02-17T09:16:08.988Z,45476.16
2023-02-17T09:18:36.051Z,45492.16
2023-02-17T09:21:11.042Z,45484.16
2023-02-17T09:23:37.867Z,45474.16
2023-02-17T09:26:08.305Z,45470.19
2023-02-17T09:28:35.179Z,45482.16
2023-02-17T09:31:29.597Z,45474.16
2023-02-17T09:33:56.489Z,45486.16
2023-02-17T09:36:25.426Z,45476.16
2023-02-17T09:38:52.449Z,45462.19
2023-02-17T09:41:22.352Z,45476.16
2023-02-17T09:43:50.120Z,45478.16
2023-02-17T09:46:28.768Z,45490.16
2023-02-17T09:49:01.588Z,45474.16
2023-02-17T09:51:52.069Z,45470.19
2023-02-17T09:54:26.769Z,45466.19
2023-02-17T09:56:56.903Z,45478.16
2023-02-17T09:59:39.572Z,45478.16
2023-02-17T10:02:14.499Z,45474.16
2023-02-17T10:04:46.357Z,45474.16
2023-02-17T10:07:34.904Z,45470.19
2023-02-17T10:10:14.504Z,45458.19
2023-02-17T10:12:46.249Z,45470.19
2023-02-17T10:15:20.855Z,45462.19
2023-02-17T10:18:08.239Z,45460.19
2023-02-17T10:20:56.905Z,45446.19
2023-02-17T10:23:26.492Z,45478.16
2023-02-17T10:26:20.264Z,45466.19
2023-02-17T10:29:13.571Z,45458.19
2023-02-17T10:31:56.707Z,45452.19
2023-02-17T10:34:42.190Z,45474.16
2023-02-17T10:37:27.583Z,45454.19
2023-02-17T10:39:57.062Z,45452.19
2023-02-17T10:42:29.593Z,45436.19
2023-02-17T10:45:02.898Z,45452.19
2023-02-17T10:47:30.117Z,45466.19
2023-02-17T10:49:58.319Z,45450.19
2023-02-17T10:52:36.793Z,45450.19
2023-02-17T10:55:24.416Z,45454.19
2023-02-17T10:57:58.486Z,45446.19
2023-02-17T11:00:25.100Z,45454.19
2023-02-17T11:02:52.272Z,45446.19
2023-02-17T11:05:31.567Z,45460.19
2023-02-17T11:08:25.519Z,45458.19
2023-02-17T11:10:59.697Z,45450.19
2023-02-17T11:13:40.015Z,45442.19
2023-02-17T11:16:07.388Z,45454.19
2023-02-17T11:18:38.906Z,45450.19
2023-02-17T11:21:09.700Z,45456.19
2023-02-17T11:23:47.930Z,45454.19
2023-02-17T11:26:26.544Z,45454.19
2023-02-17T11:28:53.600Z,45444.19
2023-02-17T11:31:31.656Z,45430.22
2023-02-17T11:33:58.274Z,45426.22
2023-02-17T11:36:27.911Z,45432.19
2023-02-17T11:38:54.584Z,45426.22
2023-02-17T11:41:21.919Z,45434.19
2023-02-17T11:43:58.552Z,45438.19
2023-02-17T11:46:46.975Z,45446.19
2023-02-17T11:49:34.560Z,45450.19
2023-02-17T11:52:29.061Z,45412.22
2023-02-17T11:55:14.692Z,45418.22
2023-02-17T11:58:10.994Z,45436.19
2023-02-17T12:01:04.888Z,45412.22
2023-02-17T12:03:42.865Z,45438.19
2023-02-17T12:06:12.256Z,45434.19
2023-02-17T12:09:03.562Z,45422.22
2023-02-17T12:11:59.141Z,45428.22
2023-02-17T12:14:31.474Z,45436.19
2023-02-17T12:17:18.950Z,45420.22
2023-02-17T12:20:02.155Z,45434.19
2023-02-17T12:23:14.678Z,45418.22
2023-02-17T12:26:06.582Z,45416.22
2023-02-17T12:28:47.568Z,45424.22
2023-02-17T12:31:29.470Z,45410.22
2023-02-17T12:34:19.378Z,45414.22
2023-02-17T12:36:48.714Z,45414.22
2023-02-17T12:39:20.639Z,45394.22
2023-02-17T12:41:50.301Z,45410.22
2023-02-17T12:44:28.048Z,45426.22
2023-02-17T12:46:59.784Z,45416.22
2023-02-17T12:50:03.945Z,45430.22
2023-02-17T12:52:40.926Z,45432.19
2023-02-17T12:55:21.870Z,45424.22
2023-02-17T12:58:00.470Z,45414.22
2023-02-17T13:00:46.852Z,45442.19
2023-02-17T13:03:13.448Z,45414.22
2023-02-17T13:05:47.432Z,45426.22
2023-02-17T13:08:23.258Z,45402.22
2023-02-17T13:11:04.405Z,45434.19
2023-02-17T13:13:34.960Z,45410.22
2023-02-17T13:16:07.691Z,45418.22
2023-02-17T13:18:37.395Z,45422.22
2023-02-17T13:21:24.666Z,45416.22
2023-02-17T13:24:03.371Z,45406.22
2023-02-17T13:26:37.037Z,45426.22
2023-02-17T13:29:09.319Z,45410.22
2023-02-17T13:31:47.392Z,45410.22
2023-02-17T13:34:25.453Z,45418.22
2023-02-17T13:36:52.470Z,45432.19
2023-02-17T13:39:27.758Z,45418.22
2023-02-17T13:41:57.788Z,45414.22
2023-02-17T13:44:39.668Z,45410.22
2023-02-17T13:47:29.658Z,45422.22
2023-02-17T13:49:57.058Z,45418.22
2023-02-17T13:52:26.818Z,45422.22
2023-02-17T13:55:05.887Z,45412.22
2023-02-17T13:57:35.839Z,45426.22
2023-02-17T14:00:22.549Z,45428.22
2023-02-17T14:02:51.858Z,45410.22
2023-02-17T14:05:37.085Z,45426.22
2023-02-17T14:08:18.768Z,45428.22
2023-02-17T14:10:46.075Z,45426.22
2023-02-17T14:13:13.861Z,45426.22
2023-02-17T14:15:58.531Z,45432.19
2023-02-17T14:18:35.327Z,45410.22
2023-02-17T14:21:11.787Z,45424.22
2023-02-17T14:23:52.225Z,45424.22
2023-02-17T14:26:36.739Z,45430.22
2023-02-17T14:29:06.566Z,45410.22
2023-02-17T14:31:48.425Z,45430.22
2023-02-17T14:34:20.651Z,45438.19
2023-02-17T14:36:47.514Z,45440.19
2023-02-17T14:39:16.007Z,45432.19
2023-02-17T14:41:43.950Z,45420.22
2023-02-17T14:44:10.423Z,45442.19
2023-02-17T14:46:37.291Z,45430.22
2023-02-17T14:49:04.174Z,45466.19
2023-02-17T14:51:36.443Z,45438.19
2023-02-17T14:54:10.534Z,45442.19
2023-02-17T14:56:41.912Z,45422.22
2023-02-17T14:59:09.885Z,45440.19
2023-02-17T15:01:36.713Z,45426.22
2023-02-17T15:04:03.584Z,45426.22
2023-02-17T15:06:40.846Z,45434.19
2023-02-17T15:09:16.418Z,45460.19
2023-02-17T15:11:45.558Z,45450.19
2023-02-17T15:14:17.426Z,45454.19
2023-02-17T15:16:44.441Z,45442.19
2023-02-17T15:19:11.928Z,45434.19
2023-02-17T15:21:42.947Z,45450.19
2023-02-17T15:24:22.826Z,45452.19
2023-02-17T15:26:49.245Z,45446.19
2023-02-17T15:29:19.086Z,45446.19
2023-02-17T15:31:46.791Z,45462.19
2023-02-17T15:34:16.013Z,45460.19
2023-02-17T15:36:43.231Z,45458.19
2023-02-17T15:39:11.125Z,45436.19
2023-02-17T15:41:39.957Z,45472.16
2023-02-17T15:44:12.168Z,45442.19
2023-02-17T15:46:39.043Z,45466.19
2023-02-17T15:49:05.969Z,45462.19
2023-02-17T15:51:32.389Z,45446.19
2023-02-17T15:53:58.810Z,45456.19
2023-02-17T15:56:43.105Z,45454.19
2023-02-17T15:59:16.215Z,45454.19
2023-02-17T16:01:43.498Z,45442.19
2023-02-17T16:04:11.510Z,45462.19
2023-02-17T16:06:38.606Z,45466.19
2023-02-17T16:09:05.597Z,45442.19
2023-02-17T16:11:33.238Z,45454.19
2023-02-17T16:14:01.022Z,45454.19
2023-02-17T16:16:32.655Z,45458.19
2023-02-17T16:19:00.670Z,45438.19
2023-02-17T16:21:27.314Z,45462.19
2023-02-17T16:23:58.900Z,45454.19
2023-02-17T16:26:34.729Z,45446.19
2023-02-17T16:29:14.880Z,45454.19
2023-02-17T16:31:41.425Z,45444.19
2023-02-17T16:34:07.927Z,45462.19
2023-02-17T16:36:35.724Z,45482.16
2023-02-17T16:39:11.442Z,45450.19
2023-02-17T16:41:38.801Z,45466.19
2023-02-17T16:44:07.399Z,45464.19
2023-02-17T16:46:36.443Z,45462.19
2023-02-17T16:49:15.194Z,45466.19
2023-02-17T16:51:41.574Z,45458.19
2023-02-17T16:54:09.820Z,45462.19
2023-02-17T16:56:43.190Z,45470.19
2023-02-17T16:59:17.468Z,45452.19
2023-02-17T17:01:44.688Z,45444.19
2023-02-17T17:04:11.178Z,45452.19
2023-02-17T17:06:41.937Z,45462.19
2023-02-17T17:09:08.651Z,45458.19
2023-02-17T17:11:35.073Z,45456.19
2023-02-17T17:14:01.479Z,45474.16
2023-02-17T17:16:31.594Z,45470.19
2023-02-17T17:18:59.036Z,45458.19
2023-02-17T17:21:25.416Z,45466.19
2023-02-17T17:23:51.854Z,45462.19
2023-02-17T17:26:23.370Z,45462.19
2023-02-17T17:28:50.155Z,45462.19
2023-02-17T17:31:18.078Z,45438.19
2023-02-17T17:33:44.795Z,45484.16
2023-02-17T17:36:26.607Z,45464.19
2023-02-17T17:38:54.801Z,45474.16
2023-02-17T17:41:23.035Z,45464.19
2023-02-17T17:43:51.449Z,45472.16
2023-02-17T17:46:20.928Z,45462.19
2023-02-17T17:48:47.509Z,45454.19
2023-02-17T17:51:16.056Z,45460.19
2023-02-17T17:53:43.442Z,45458.19
2023-02-17T17:56:21.941Z,45464.19
2023-02-17T17:58:48.623Z,45464.19
2023-02-17T18:01:15.648Z,45458.19
2023-02-17T18:03:42.716Z,45462.19
2023-02-17T18:06:14.637Z,45458.19
2023-02-17T18:08:42.612Z,45462.19
2023-02-17T18:11:09.168Z,45472.16
2023-02-17T18:13:35.618Z,45480.16
2023-02-17T18:16:02.845Z,45470.19
2023-02-17T18:18:29.572Z,45462.19
2023-02-17T18:20:56.024Z,45466.19
2023-02-17T18:23:22.517Z,45468.19
2023-02-17T18:25:48.891Z,45466.19
2023-02-17T18:28:15.260Z,45474.16
2023-02-17T18:30:43.322Z,45466.19
2023-02-17T18:33:09.838Z,45470.19
2023-02-17T18:35:37.001Z,45470.19
2023-02-17T18:38:03.727Z,45476.16
2023-02-17T18:40:30.805Z,45474.16
2023-02-17T18:42:57.514Z,45470.19
2023-02-17T18:45:26.085Z,45446.19
2023-02-17T18:47:52.639Z,45482.16
2023-02-17T18:50:19.054Z,45466.19
2023-02-17T18:52:45.475Z,45486.16
2023-02-17T18:55:12.349Z,45474.16
2023-02-17T18:57:38.892Z,45466.19
2023-02-17T19:00:09.486Z,45462.19
2023-02-17T19:02:39.804Z,45454.19
2023-02-17T19:05:07.430Z,45474.16
2023-02-17T19:07:34.097Z,45458.19
2023-02-17T19:10:00.955Z,45462.19
2023-02-17T19:12:27.711Z,45470.19
2023-02-17T19:14:55.938Z,45470.19
2023-02-17T19:17:23.942Z,45480.16
2023-02-17T19:19:52.099Z,45448.19
2023-02-17T19:22:19.242Z,45480.16
2023-02-17T19:24:51.376Z,45466.19
2023-02-17T19:27:18.056Z,45466.19
2023-02-17T19:29:44.523Z,45464.19
2023-02-17T19:32:11.072Z,45490.16
2023-02-17T19:34:38.444Z,45456.19
2023-02-17T19:37:05.232Z,45468.19
2023-02-17T19:39:31.919Z,45478.16
2023-02-17T19:41:58.337Z,45470.19
2023-02-17T19:44:25.016Z,45462.19
2023-02-17T19:46:51.906Z,45454.19
2023-02-17T19:49:18.546Z,45462.19
2023-02-17T19:51:44.937Z,45470.19
2023-02-17T19:54:11.316Z,45480.16
2023-02-17T19:56:38.870Z,45470.19
2023-02-17T19:59:05.622Z,45480.16
2023-02-17T20:01:33.361Z,45466.19
2023-02-17T20:04:02.941Z,45472.16
2023-02-17T20:06:32.235Z,45450.19
2023-02-17T20:09:07.133Z,45448.19
2023-02-17T20:11:33.649Z,45462.19
2023-02-17T20:14:01.248Z,45458.19
2023-02-17T20:16:29.102Z,45470.19
2023-02-17T20:18:55.635Z,45484.16
2023-02-17T20:21:25.310Z,45458.19
2023-02-17T20:23:52.399Z,45470.19
2023-02-17T20:26:21.844Z,45456.19
2023-02-17T20:28:49.698Z,45474.16
2023-02-17T20:31:16.358Z,45482.16
2023-02-17T20:33:43.153Z,45474.16
2023-02-17T20:36:10.494Z,45460.19
2023-02-17T20:38:37.593Z,45468.19
2023-02-17T20:41:05.537Z,45458.19
2023-02-17T20:43:32.245Z,45450.19
2023-02-17T20:45:58.820Z,45450.19
2023-02-17T20:48:28.409Z,45462.19
2023-02-17T20:50:56.731Z,45446.19
2023-02-17T20:53:23.895Z,45470.19
2023-02-17T20:55:51.204Z,45482.16
2023-02-17T20:58:17.823Z,45470.19
2023-02-17T21:00:44.640Z,45482.16
2023-02-17T21:03:11.088Z,45450.19
2023-02-17T21:05:37.730Z,45466.19
2023-02-17T21:08:04.648Z,45474.16
2023-02-17T21:10:32.422Z,45466.19
2023-02-17T21:12:58.804Z,45470.19
2023-02-17T21:15:25.636Z,45468.19
2023-02-17T21:17:52.057Z,45454.19
2023-02-17T21:20:21.665Z,45480.16
2023-02-17T21:22:48.591Z,45480.16
2023-02-17T21:25:15.128Z,45462.19
2023-02-17T21:27:41.623Z,45466.19
2023-02-17T21:30:09.181Z,45482.16
2023-02-17T21:32:35.650Z,45466.19
2023-02-17T21:35:02.251Z,45478.16
2023-02-17T21:37:28.642Z,45466.19
2023-02-17T21:39:55.038Z,45486.16
2023-02-17T21:42:42.749Z,45470.19
2023-02-17T21:45:10.600Z,45490.16
2023-02-17T21:47:37.050Z,45482.16
2023-02-17T21:50:03.606Z,45466.19
2023-02-17T21:52:29.977Z,45490.16
2023-02-17T21:54:56.434Z,45482.16
2023-02-17T21:57:22.861Z,45470.19
2023-02-17T21:59:49.230Z,45478.16
2023-02-17T22:02:15.693Z,45490.16
2023-02-17T22:04:42.134Z,45472.16
2023-02-17T22:07:09.874Z,45460.19
2023-02-17T22:09:36.243Z,45486.16
2023-02-17T22:12:02.970Z,45492.16
2023-02-17T22:14:29.560Z,45498.16
2023-02-17T22:16:57.324Z,45472.16
2023-02-17T22:19:25.098Z,45474.16
2023-02-17T22:21:51.873Z,45482.16
2023-02-17T22:24:20.660Z,45462.19
2023-02-17T22:26:48.839Z,45470.19
2023-02-17T22:29:15.395Z,45470.19
2023-02-17T22:31:41.866Z,45482.16
2023-02-17T22:34:11.520Z,45490.16
2023-02-17T22:36:38.377Z,45486.16
2023-02-17T22:39:07.742Z,45490.16
2023-02-17T22:41:34.992Z,45470.19
2023-02-17T22:44:03.023Z,45490.16
2023-02-17T22:46:29.467Z,45478.16
2023-02-17T22:48:57.310Z,45482.16
2023-02-17T22:51:35.725Z,45466.19
2023-02-17T22:54:02.165Z,45462.19
2023-02-17T22:56:29.051Z,45482.16
2023-02-17T22:58:57.949Z,45470.19
2023-02-17T23:01:24.963Z,45480.16
2023-02-17T23:03:54.302Z,45474.16
2023-02-17T23:06:35.658Z,45472.16
2023-02-17T23:09:02.761Z,45474.16
2023-02-17T23:11:52.192Z,45476.16
2023-02-17T23:14:26.224Z,45486.16
2023-02-17T23:16:54.976Z,45466.19
2023-02-17T23:19:22.888Z,45470.19
2023-02-17T23:21:52.754Z,45474.16
2023-02-17T23:24:20.235Z,45482.16
2023-02-17T23:26:47.576Z,45476.16
2023-02-17T23:29:15.042Z,45478.16
2023-02-17T23:31:42.301Z,45484.16
2023-02-17T23:34:09.223Z,45472.16
2023-02-17T23:36:38.920Z,45498.16
2023-02-17T23:39:05.832Z,45486.16
2023-02-17T23:41:33.090Z,45466.19
2023-02-17T23:43:59.583Z,45482.16
2023-02-17T23:46:27.425Z,45480.16
2023-02-17T23:48:54.343Z,45480.16
2023-02-17T23:51:20.882Z,45488.16
2023-02-17T23:53:47.665Z,45492.16
2023-02-17T23:56:18.093Z,45470.19
2023-02-17T23:58:44.755Z,45474.16
